^^
Grace C. Lehan Memorial Weather Station Historical Data
Daily Summary for October 24, 2021 Units:  Metric    English   Both
Daily Weekly Monthly Yearly
  High: Low: Average:
Temperature: 16.2 °C 5.1 °C 11.2 °C
Dew Point: 9.7 °C 3.6 °C 6.1 °C
Humidity: 92% 50.7% 72%
Wind Speed: 1.4km/h 0km/h 0km/h
Wind Gust: 16.1km/h - -
Wind- - SW
Pressure: 1021.2 hPa 1014.4 hPa -
Precipitation: 0.76 mm    
 
 
Tabular Data for October 24, 2021
Time Temperature Dew Point Pressure Wind Wind Speed Wind Gust Humidity Rainfall Rate (Hourly) solar
00:00 10.4 °C 7.4 °C 1014.8 hPa Calm     82% 0 mm 0 W/m2
00:09 10.2 °C 7.3 °C 1014.8 hPa Calm     82.4% 0 mm 0 W/m2
00:14 10.1 °C 7.2 °C 1014.4 hPa Calm     82% 0 mm 0 W/m2
00:19 10 °C 7 °C 1014.8 hPa Calm     81.6% 0 mm 0 W/m2
00:24 9.8 °C 6.7 °C 1014.8 hPa Calm     81% 0 mm 0 W/m2
00:29 9.8 °C 6.7 °C 1014.8 hPa Calm     81% 0 mm 0 W/m2
00:34 9.7 °C 6.6 °C 1014.8 hPa Calm     81.1% 0 mm 0 W/m2
00:39 9.6 °C 6.7 °C 1014.8 hPa Calm     82% 0 mm 0 W/m2
00:44 9.5 °C 6.6 °C 1014.8 hPa Calm     82% 0 mm 0 W/m2
00:49 9.4 °C 6.4 °C 1015.1 hPa Calm     82% 0 mm 0 W/m2
00:54 9.3 °C 6.4 °C 1015.1 hPa Calm     82.2% 0 mm 0 W/m2
00:59 9.2 °C 6.4 °C 1015.1 hPa Calm     83% 0 mm 0 W/m2
01:04 9.1 °C 6.3 °C 1015.1 hPa Calm     83% 0 mm 0 W/m2
01:09 8.9 °C 6.3 °C 1015.1 hPa Calm     83.5% 0 mm 0 W/m2
01:14 8.8 °C 5.9 °C 1015.5 hPa Calm     82% 0 mm 0 W/m2
01:19 8.7 °C 5.8 °C 1015.5 hPa Calm     82% 0 mm 0 W/m2
01:24 8.7 °C 5.8 °C 1015.5 hPa Calm     82% 0 mm 0 W/m2
01:29 8.6 °C 5.7 °C 1015.5 hPa Calm     82% 0 mm 0 W/m2
01:34 8.5 °C 5.7 °C 1015.5 hPa Calm     82.7% 0 mm 0 W/m2
01:39 8.4 °C 5.8 °C 1015.5 hPa Calm     83.3% 0 mm 0 W/m2
01:44 8.3 °C 5.8 °C 1015.5 hPa Calm     84% 0 mm 0 W/m2
01:49 8.2 °C 5.8 °C 1015.8 hPa Calm     84.4% 0 mm 0 W/m2
01:54 8.1 °C 5.8 °C 1015.8 hPa Calm     85% 0 mm 0 W/m2
01:59 8 °C 5.7 °C 1015.8 hPa Calm     85% 0 mm 0 W/m2
02:04 7.9 °C 5.6 °C 1015.8 hPa Calm     85% 0 mm 0 W/m2
02:09 7.8 °C 5.4 °C 1015.8 hPa NW 1.1 km/h 6.4 km/h 85% 0 mm 0 W/m2
02:14 7.7 °C 5.4 °C 1015.8 hPa NW 0.2 km/h 6.4 km/h 85% 0 mm 0 W/m2
02:19 7.7 °C 5.4 °C 1016.1 hPa Calm   6.4 km/h 85.5% 0 mm 0 W/m2
02:24 7.6 °C 5.4 °C 1016.1 hPa Calm   6.4 km/h 86% 0 mm 0 W/m2
02:29 7.5 °C 5.3 °C 1016.1 hPa Calm   6.4 km/h 86% 0 mm 0 W/m2
02:34 7.4 °C 5.2 °C 1016.1 hPa Calm   6.4 km/h 86% 0 mm 0 W/m2
02:39 7.3 °C 5.2 °C 1016.1 hPa Calm     86% 0 mm 0 W/m2
02:44 7.3 °C 5.1 °C 1015.8 hPa Calm     86% 0 mm 0 W/m2
02:49 7.2 °C 5 °C 1015.8 hPa Calm     86% 0 mm 0 W/m2
02:54 7.1 °C 4.9 °C 1015.8 hPa Calm     85.8% 0 mm 0 W/m2
02:59 7.1 °C 4.7 °C 1016.1 hPa Calm     85% 0 mm 0 W/m2
03:04 7 °C 4.7 °C 1016.1 hPa Calm     85% 0 mm 0 W/m2
03:09 7 °C 4.7 °C 1016.1 hPa Calm     85% 0 mm 0 W/m2
03:14 7 °C 4.7 °C 1016.1 hPa Calm     85% 0 mm 0 W/m2
03:19 7 °C 4.7 °C 1016.1 hPa Calm     85% 0 mm 0 W/m2
03:24 6.9 °C 4.6 °C 1016.5 hPa Calm     85% 0 mm 0 W/m2
03:29 6.9 °C 4.6 °C 1016.5 hPa Calm     85% 0 mm 0 W/m2
03:34 6.9 °C 4.7 °C 1016.5 hPa Calm     85.6% 0 mm 0 W/m2
03:39 6.9 °C 4.7 °C 1016.5 hPa Calm     86% 0 mm 0 W/m2
03:44 6.8 °C 4.7 °C 1016.5 hPa Calm     86% 0 mm 0 W/m2
03:49 6.8 °C 4.6 °C 1016.5 hPa Calm     86% 0 mm 0 W/m2
03:54 6.7 °C 4.6 °C 1016.5 hPa Calm     86% 0 mm 0 W/m2
03:59 6.7 °C 4.6 °C 1016.8 hPa Calm     86% 0 mm 0 W/m2
04:00 6.7 °C 4.6 °C 1016.8 hPa Calm     86% 0 mm 0 W/m2
04:09 6.8 °C 4.4 °C 1017.2 hPa Calm     85% 0 mm 0 W/m2
04:14 6.8 °C 4.4 °C 1017.2 hPa Calm     85% 0 mm 0 W/m2
04:19 6.7 °C 4.4 °C 1017.2 hPa Calm     85% 0 mm 0 W/m2
04:24 6.6 °C 4.3 °C 1017.2 hPa Calm     85.3% 0 mm 0 W/m2
04:28 6.5 °C 4.3 °C 1017.2 hPa Calm     86% 0 mm 0 W/m2
04:34 6.4 °C 4.4 °C 1017.5 hPa Calm     87% 0 mm 0 W/m2
04:39 6.3 °C 4.3 °C 1017.5 hPa Calm     87.1% 0 mm 0 W/m2
04:44 6.2 °C 4.4 °C 1017.5 hPa Calm     88.2% 0 mm 0 W/m2
04:49 6.2 °C 4.5 °C 1017.5 hPa Calm     89.1% 0 mm 0 W/m2
04:54 6.2 °C 4.3 °C 1017.8 hPa Calm     88.2% 0 mm 0 W/m2
04:59 6.2 °C 4.5 °C 1017.8 hPa Calm     89% 0 mm 0 W/m2
05:04 6.1 °C 4.4 °C 1017.8 hPa Calm     89% 0 mm 0 W/m2
05:09 6.1 °C 4.3 °C 1017.8 hPa Calm     88.5% 0 mm 0 W/m2
05:14 6 °C 4.2 °C 1017.8 hPa Calm     88% 0 mm 0 W/m2
05:19 6 °C 4.3 °C 1017.8 hPa Calm     88.9% 0 mm 0 W/m2
05:24 6 °C 4.3 °C 1018.2 hPa Calm     89% 0 mm 0 W/m2
05:29 6 °C 4.3 °C 1018.2 hPa Calm     89% 0 mm 0 W/m2
05:34 6.1 °C 4.4 °C 1018.2 hPa Calm     89% 0 mm 0 W/m2
05:39 6.1 °C 4.3 °C 1018.2 hPa Calm     88.3% 0 mm 0 W/m2
05:44 6.1 °C 4.3 °C 1018.2 hPa NW 0.2 km/h 1.6 km/h 88.2% 0 mm 0 W/m2
05:49 6.1 °C 4.2 °C 1018.2 hPa Calm   1.6 km/h 88% 0 mm 0 W/m2
05:54 5.9 °C 4.1 °C 1018.2 hPa Calm   1.6 km/h 88% 0 mm 0 W/m2
05:59 5.8 °C 4 °C 1018.5 hPa Calm   1.6 km/h 88% 0 mm 0 W/m2
06:04 5.7 °C 3.9 °C 1018.5 hPa Calm   1.6 km/h 88% 0 mm 0 W/m2
06:09 5.6 °C 3.8 °C 1018.5 hPa Calm     88% 0 mm 0 W/m2
06:14 5.5 °C 3.7 °C 1018.8 hPa Calm     88.5% 0 mm 0 W/m2
06:19 5.4 °C 3.7 °C 1018.8 hPa Calm     89% 0 mm 0 W/m2
06:24 5.3 °C 3.7 °C 1018.8 hPa Calm     89% 0 mm 0 W/m2
06:29 5.3 °C 3.8 °C 1018.8 hPa Calm     89.9% 0 mm 0 W/m2
06:34 5.3 °C 3.8 °C 1018.8 hPa Calm     90% 0 mm 0 W/m2
06:39 5.3 °C 3.8 °C 1018.8 hPa Calm     90% 0 mm 0 W/m2
06:44 5.3 °C 3.8 °C 1018.8 hPa Calm     90% 0 mm 0 W/m2
06:49 5.4 °C 3.8 °C 1018.8 hPa Calm     90% 0 mm 0 W/m2
06:54 5.3 °C 3.8 °C 1018.8 hPa Calm     90% 0 mm 0 W/m2
06:59 5.3 °C 3.8 °C 1018.8 hPa Calm     90% 0 mm 0 W/m2
07:04 5.3 °C 3.8 °C 1019.2 hPa Calm     90.2% 0 mm 0 W/m2
07:07 5.2 °C 3.9 °C 1019.2 hPa Calm   1.6 km/h 91% 0 mm 0 W/m2
07:30 5.1 °C 3.7 °C 1019.5 hPa Calm   1.6 km/h 91% 0 mm 3 W/m2
08:09 5.5 °C 4.3 °C 1020.2 hPa Calm   1.6 km/h 92% 0 mm 26 W/m2
08:14 5.7 °C 4.4 °C 1020.2 hPa Calm     92% 0 mm 28 W/m2
08:19 5.8 °C 4.6 °C 1020.5 hPa Calm   1.6 km/h 92% 0 mm 76 W/m2
08:24 6.1 °C 4.8 °C 1020.5 hPa Calm   1.6 km/h 92% 0 mm 32 W/m2
08:29 6.3 °C 5 °C 1020.5 hPa Calm   1.6 km/h 91.5% 0 mm 44 W/m2
08:34 6.5 °C 5.2 °C 1020.5 hPa Calm   1.6 km/h 91% 0 mm 54 W/m2
08:39 6.8 °C 5.3 °C 1020.5 hPa Calm     90.3% 0 mm 142 W/m2
08:44 7.1 °C 5.4 °C 1020.5 hPa Calm     89% 0 mm 107 W/m2
08:49 7.4 °C 5.4 °C 1020.5 hPa Calm     87.7% 0 mm 146 W/m2
08:54 7.7 °C 5.5 °C 1020.5 hPa Calm     86.2% 0 mm 146 W/m2
08:59 7.9 °C 5.4 °C 1020.9 hPa Calm     84% 0 mm 128 W/m2
09:04 8.3 °C 5.6 °C 1020.9 hPa Calm     83.3% 0 mm 315 W/m2
09:09 8.7 °C 5.3 °C 1020.9 hPa Calm     79.4% 0 mm 330 W/m2
09:14 9.3 °C 5.4 °C 1020.9 hPa NE 0.2 km/h 3.2 km/h 77% 0 mm 346 W/m2
09:19 9.9 °C 5.6 °C 1020.9 hPa ENE 0.3 km/h 3.2 km/h 74.5% 0 mm 362 W/m2
09:24 10.4 °C 5.4 °C 1020.9 hPa Calm   3.2 km/h 71.3% 0 mm 378 W/m2
09:28 10.8 °C 5.7 °C 1020.9 hPa Calm   3.2 km/h 70.5% 0 mm 394 W/m2
09:34 11.3 °C 5.4 °C 1020.9 hPa Calm   3.2 km/h 67% 0 mm 410 W/m2
09:39 11.7 °C 5.4 °C 1020.9 hPa ENE 0.3 km/h 3.2 km/h 65.4% 0 mm 424 W/m2
09:44 11.8 °C 5.3 °C 1020.9 hPa Calm   3.2 km/h 64.3% 0 mm 438 W/m2
09:49 12 °C 5.1 °C 1020.9 hPa ENE 0.3 km/h 3.2 km/h 62.7% 0 mm 445 W/m2
09:54 12.2 °C 5.4 °C 1020.9 hPa ENE 0.2 km/h 3.2 km/h 63.6% 0 mm 455 W/m2
09:59 12.5 °C 5.7 °C 1020.9 hPa Calm   3.2 km/h 63.1% 0 mm 462 W/m2
10:04 12.8 °C 5.3 °C 1020.9 hPa Calm   3.2 km/h 60.3% 0 mm 476 W/m2
10:09 13.1 °C 6.1 °C 1020.9 hPa Calm     62.4% 0 mm 489 W/m2
10:14 13.4 °C 5.8 °C 1020.9 hPa Calm     60% 0 mm 503 W/m2
10:19 13.6 °C 5.6 °C 1020.9 hPa Calm     58.5% 0 mm 513 W/m2
10:24 13.7 °C 5.6 °C 1020.9 hPa Calm     57.8% 0 mm 520 W/m2
10:29 13.8 °C 5.8 °C 1020.9 hPa Calm     58.2% 0 mm 529 W/m2
10:34 13.9 °C 5.6 °C 1020.9 hPa Calm     57.1% 0 mm 540 W/m2
10:39 13.9 °C 4.6 °C 1020.9 hPa ENE 0.2 km/h 1.6 km/h 53.6% 0 mm 550 W/m2
10:44 13.8 °C 4.3 °C 1020.9 hPa Calm   1.6 km/h 52.7% 0 mm 557 W/m2
10:49 13.6 °C 3.6 °C 1020.9 hPa Calm   1.6 km/h 50.7% 0 mm 564 W/m2
10:54 13.5 °C 3.7 °C 1020.9 hPa Calm   1.6 km/h 51.2% 0 mm 570 W/m2
10:59 13.6 °C 4.5 °C 1020.9 hPa Calm   1.6 km/h 53.9% 0 mm 575 W/m2
11:04 13.9 °C 4.9 °C 1021.2 hPa ENE 0.2 km/h 1.6 km/h 54.5% 0 mm 582 W/m2
11:09 14.1 °C 4.8 °C 1021.2 hPa ENE 0.3 km/h 3.2 km/h 53.2% 0 mm 584 W/m2
11:14 14.3 °C 4.4 °C 1020.9 hPa Calm   3.2 km/h 51.6% 0 mm 596 W/m2
11:19 14.4 °C 4.3 °C 1020.5 hPa Calm   3.2 km/h 50.9% 0 mm 545 W/m2
11:24 14.6 °C 4.8 °C 1020.5 hPa Calm   3.2 km/h 52.1% 0 mm 232 W/m2
11:29 14.6 °C 4.7 °C 1020.9 hPa Calm   3.2 km/h 51.5% 0 mm 478 W/m2
11:34 14.6 °C 4.9 °C 1020.9 hPa Calm   3.2 km/h 52.3% 0 mm 508 W/m2
11:39 14.6 °C 4.6 °C 1020.5 hPa Calm     51% 0 mm 387 W/m2
11:44 14.6 °C 4.7 °C 1020.5 hPa Calm     51.6% 0 mm 577 W/m2
11:49 14.7 °C 4.8 °C 1020.9 hPa Calm   1.6 km/h 51.7% 0 mm 624 W/m2
11:54 14.7 °C 4.9 °C 1020.5 hPa Calm   1.6 km/h 51.6% 0 mm 626 W/m2
11:59 14.6 °C 4.6 °C 1020.5 hPa Calm   1.6 km/h 51.1% 0 mm 626 W/m2
12:00 14.6 °C 4.8 °C 1020.5 hPa Calm   1.6 km/h 52% 0 mm 42 W/m2
12:09 14.2 °C 4.8 °C 1020.5 hPa Calm     53.2% 0 mm 647 W/m2
12:14 14.2 °C 5.2 °C 1020.5 hPa Calm   1.6 km/h 54.4% 0 mm 647 W/m2
12:19 14.3 °C 5.2 °C 1020.5 hPa Calm   1.6 km/h 54.3% 0 mm 624 W/m2
12:24 14.3 °C 4.9 °C 1020.2 hPa Calm   1.6 km/h 53.2% 0 mm 197 W/m2
12:29 14.3 °C 5.3 °C 1020.5 hPa Calm   1.6 km/h 54.7% 0 mm 272 W/m2
12:34 14.3 °C 5.1 °C 1020.2 hPa SSW 0.2 km/h 1.6 km/h 54.1% 0 mm 179 W/m2
12:39 14.1 °C 4.8 °C 1020.2 hPa Calm   1.6 km/h 53.7% 0 mm 202 W/m2
12:44 14.1 °C 5.4 °C 1020.2 hPa WSW 0.2 km/h 3.2 km/h 55.9% 0 mm 411 W/m2
12:49 14.2 °C 5.5 °C 1020.2 hPa Calm   3.2 km/h 55.8% 0 mm 137 W/m2
12:54 14.3 °C 5.6 °C 1020.2 hPa WSW 1.3 km/h 6.4 km/h 55.8% 0 mm 130 W/m2
12:59 14.4 °C 5.7 °C 1019.9 hPa WSW 1.4 km/h 8 km/h 56% 0 mm 139 W/m2
13:04 14.6 °C 5.6 °C 1019.9 hPa WSW 0.6 km/h 8 km/h 54.9% 0 mm 114 W/m2
13:09 14.7 °C 5.9 °C 1019.9 hPa Calm   4.8 km/h 55.4% 0 mm 420 W/m2
13:14 14.8 °C 6.2 °C 1019.9 hPa WSW 0.2 km/h 4.8 km/h 56.1% 0 mm 334 W/m2
13:19 14.9 °C 5.8 °C 1019.9 hPa SW 0.5 km/h 8 km/h 54.8% 0 mm 186 W/m2
13:24 14.8 °C 5.9 °C 1019.5 hPa Calm   8 km/h 55.1% 0 mm 206 W/m2
13:29 14.9 °C 6.5 °C 1019.5 hPa Calm   8 km/h 57.2% 0 mm 206 W/m2
13:34 14.9 °C 6.4 °C 1019.5 hPa Calm   8 km/h 56.7% 0 mm 134 W/m2
13:39 15 °C 6.4 °C 1019.2 hPa Calm   1.6 km/h 56.3% 0 mm 575 W/m2
13:44 15 °C 6.3 °C 1019.2 hPa Calm   1.6 km/h 55.9% 0 mm 526 W/m2
13:49 15 °C 6.4 °C 1019.2 hPa Calm   1.6 km/h 56.7% 0 mm 229 W/m2
13:54 15.1 °C 6.8 °C 1019.2 hPa Calm   1.6 km/h 57.8% 0 mm 383 W/m2
13:59 15.2 °C 7 °C 1019.2 hPa WNW 0.6 km/h 4.8 km/h 58% 0 mm 374 W/m2
14:04 15.4 °C 7 °C 1018.8 hPa Calm   4.8 km/h 57.3% 0 mm 211 W/m2
14:09 15.7 °C 7.4 °C 1018.8 hPa Calm   1.6 km/h 58% 0 mm 207 W/m2
14:14 15.8 °C 7.1 °C 1018.8 hPa Calm   1.6 km/h 55.9% 0 mm 241 W/m2
14:19 15.9 °C 6.9 °C 1018.8 hPa WSW 0.6 km/h 9.7 km/h 55% 0 mm 427 W/m2
14:24 16.1 °C 6.9 °C 1018.8 hPa WSW 1 km/h 9.7 km/h 54.7% 0 mm 475 W/m2
14:29 16.2 °C 6.9 °C 1018.8 hPa West 0.2 km/h 9.7 km/h 54.2% 0 mm 206 W/m2
14:34 16.2 °C 6.8 °C 1018.8 hPa WSW 0.3 km/h 9.7 km/h 53.6% 0 mm 141 W/m2
14:39 16.2 °C 6.9 °C 1018.8 hPa WSW 0.6 km/h 9.7 km/h 54% 0 mm 153 W/m2
14:44 16.2 °C 6.9 °C 1018.8 hPa Calm   9.7 km/h 54.4% 0 mm 269 W/m2
14:49 16.2 °C 7.1 °C 1018.8 hPa WSW 0.8 km/h 16.1 km/h 54.7% 0 mm 171 W/m2
14:54 16.2 °C 7.1 °C 1018.8 hPa WSW 0.2 km/h 16.1 km/h 54.9% 0 mm 160 W/m2
14:59 16.2 °C 6.7 °C 1018.8 hPa WSW 0.2 km/h 16.1 km/h 53.2% 0 mm 148 W/m2
15:04 16.2 °C 7.1 °C 1018.8 hPa WSW 0.2 km/h 16.1 km/h 54.8% 0 mm 251 W/m2
15:09 16.2 °C 7.2 °C 1018.8 hPa Calm   1.6 km/h 55.1% 0 mm 202 W/m2
15:14 16.2 °C 6.9 °C 1018.8 hPa West 0.3 km/h 6.4 km/h 54% 0 mm 241 W/m2
15:19 16.2 °C 6.8 °C 1018.8 hPa SW 0.5 km/h 6.4 km/h 54% 0 mm 176 W/m2
15:24 16.1 °C 6.9 °C 1018.8 hPa Calm   6.4 km/h 54.6% 0 mm 193 W/m2
15:29 16 °C 7 °C 1018.8 hPa SW 1 km/h 11.3 km/h 55.2% 0 mm 207 W/m2
15:34 15.9 °C 6.9 °C 1018.8 hPa Calm   11.3 km/h 55.2% 0 mm 202 W/m2
15:39 15.7 °C 7.1 °C 1018.8 hPa Calm   1.6 km/h 56.2% 0 mm 114 W/m2
15:44 15.6 °C 7.3 °C 1018.8 hPa Calm   1.6 km/h 57.5% 0 mm 111 W/m2
15:49 15.6 °C 7.1 °C 1018.8 hPa Calm   1.6 km/h 57.3% 0 mm 114 W/m2
15:54 15.5 °C 7.3 °C 1018.8 hPa Calm   1.6 km/h 58.3% 0 mm 114 W/m2
15:59 15.4 °C 7.4 °C 1018.8 hPa SW 0.2 km/h 4.8 km/h 58.6% 0 mm 97 W/m2
16:00 15.4 °C 7.4 °C 1018.8 hPa Calm   4.8 km/h 59% 0 mm 93 W/m2
16:09 15.3 °C 7.3 °C 1019.2 hPa SW 0.2 km/h 1.6 km/h 58.8% 0 mm 118 W/m2
16:14 15.3 °C 7.3 °C 1019.2 hPa Calm   1.6 km/h 59% 0 mm 120 W/m2
16:19 15.3 °C 7.4 °C 1019.2 hPa Calm   1.6 km/h 59.5% 0 mm 118 W/m2
16:24 15.3 °C 7.7 °C 1019.2 hPa Calm   1.6 km/h 60% 0 mm 107 W/m2
16:29 15.4 °C 7.7 °C 1019.2 hPa WSW 0.3 km/h 8 km/h 59.7% 0 mm 65 W/m2
16:34 15.5 °C 7.4 °C 1019.2 hPa Calm   8 km/h 58.3% 0 mm 47 W/m2
16:39 15.4 °C 7.4 °C 1019.2 hPa Calm   3.2 km/h 58.6% 0 mm 39 W/m2
16:44 15.4 °C 7.4 °C 1018.8 hPa Calm   3.2 km/h 59% 0 mm 32 W/m2
16:49 15.3 °C 7.3 °C 1018.8 hPa WSW 1 km/h 8 km/h 59% 0 mm 32 W/m2
16:54 15.2 °C 7.1 °C 1019.2 hPa Calm   8 km/h 58.5% 0 mm 25 W/m2
16:59 15.1 °C 7.3 °C 1019.2 hPa Calm   8 km/h 60% 0 mm 28 W/m2
17:04 14.9 °C 7.7 °C 1019.2 hPa Calm   8 km/h 61.7% 0 mm 33 W/m2
17:09 14.9 °C 8 °C 1019.2 hPa Calm     63.3% 0 mm 32 W/m2
17:14 14.8 °C 8.1 °C 1019.2 hPa Calm     63.8% 0 mm 21 W/m2
17:19 14.8 °C 7.9 °C 1019.2 hPa Calm     63.3% 0 mm 21 W/m2
17:24 14.7 °C 7.8 °C 1019.2 hPa Calm     63.2% 0 mm 21 W/m2
17:29 14.6 °C 7.6 °C 1019.2 hPa WSW 0.2 km/h 4.8 km/h 63% 0 mm 16 W/m2
17:34 14.4 °C 7.5 °C 1019.2 hPa West 0.3 km/h 9.7 km/h 63.3% 0 mm 12 W/m2
17:39 14.3 °C 7.6 °C 1019.5 hPa Calm   9.7 km/h 64% 0 mm 9 W/m2
17:44 14.1 °C 7.4 °C 1019.5 hPa West 0.3 km/h 9.7 km/h 64% 0 mm 7 W/m2
17:49 13.9 °C 7.5 °C 1019.2 hPa Calm   9.7 km/h 64.9% 0 mm 5 W/m2
17:54 13.8 °C 7.3 °C 1019.2 hPa Calm   9.7 km/h 65% 0 mm 0 W/m2
17:59 13.7 °C 7.4 °C 1019.2 hPa Calm   9.7 km/h 66% 0 mm 0 W/m2
18:04 13.5 °C 7.3 °C 1019.5 hPa Calm   9.7 km/h 66% 0 mm 0 W/m2
18:09 13.3 °C 7.3 °C 1019.5 hPa Calm     66.6% 0 mm 0 W/m2
18:14 13.2 °C 7.2 °C 1019.5 hPa Calm     67% 0 mm 0 W/m2
18:19 13 °C 7.1 °C 1019.5 hPa Calm     67% 0 mm 0 W/m2
18:24 12.9 °C 7.1 °C 1019.5 hPa Calm     67.9% 0 mm 0 W/m2
18:29 12.7 °C 7.2 °C 1019.5 hPa Calm     68.9% 0 mm 0 W/m2
18:34 12.6 °C 7.1 °C 1019.9 hPa Calm   1.6 km/h 69.1% 0 mm 0 W/m2
18:39 12.5 °C 7.2 °C 1019.9 hPa Calm   1.6 km/h 70.1% 0 mm 0 W/m2
18:44 12.4 °C 7.3 °C 1019.9 hPa Calm   1.6 km/h 71% 0 mm 0 W/m2
18:49 12.4 °C 7.3 °C 1019.9 hPa Calm   1.6 km/h 71% 0 mm 0 W/m2
18:54 12.4 °C 7.4 °C 1019.9 hPa Calm   1.6 km/h 71.6% 0 mm 0 W/m2
18:59 12.4 °C 7.3 °C 1019.9 hPa Calm   1.6 km/h 71.3% 0 mm 0 W/m2
19:04 12.3 °C 7.4 °C 1019.9 hPa Calm   1.6 km/h 71.7% 0 mm 0 W/m2
19:09 12.3 °C 7.4 °C 1019.9 hPa Calm     72% 0 mm 0 W/m2
19:14 12.3 °C 7.4 °C 1019.9 hPa Calm     72.1% 0 mm 0 W/m2
19:19 12.2 °C 7.6 °C 1019.9 hPa Calm     73% 0 mm 0 W/m2
19:24 12.2 °C 7.6 °C 1019.9 hPa Calm     73% 0 mm 0 W/m2
19:29 12.2 °C 7.6 °C 1019.9 hPa Calm     73% 0 mm 0 W/m2
19:34 12.2 °C 7.6 °C 1019.9 hPa Calm     73% 0 mm 0 W/m2
19:39 12.2 °C 7.6 °C 1019.9 hPa Calm     73% 0 mm 0 W/m2
19:44 12.2 °C 7.6 °C 1019.9 hPa Calm     73% 0 mm 0 W/m2
19:49 12.2 °C 7.6 °C 1019.9 hPa Calm     73% 0 mm 0 W/m2
19:54 12.2 °C 7.6 °C 1019.5 hPa Calm     73% 0 mm 0 W/m2
19:59 12.2 °C 7.6 °C 1019.5 hPa Calm     73% 0 mm 0 W/m2
20:00 12.2 °C 7.6 °C 1019.5 hPa Calm     73% 0 mm 0 W/m2
20:09 12.3 °C 7.8 °C 1019.5 hPa Calm     74% 0 mm 0 W/m2
20:14 12.3 °C 7.8 °C 1019.5 hPa Calm     74.3% 0 mm 0 W/m2
20:19 12.3 °C 8 °C 1019.5 hPa Calm     75% 0 mm 0 W/m2
20:24 12.3 °C 8 °C 1019.9 hPa Calm     75% 0 mm 0 W/m2
20:29 12.3 °C 7.9 °C 1019.9 hPa Calm     75% 0 mm 0 W/m2
20:34 12.2 °C 7.9 °C 1019.5 hPa Calm     75% 0 mm 0 W/m2
20:39 12.2 °C 8 °C 1019.5 hPa Calm     75.4% 0 mm 0 W/m2
20:44 12.3 °C 8.2 °C 1019.5 hPa Calm     76% 0 mm 0 W/m2
20:49 12.3 °C 8.2 °C 1019.5 hPa Calm     76% 0 mm 0 W/m2
20:54 12.3 °C 8.2 °C 1019.5 hPa Calm     76.2% 0 mm 0 W/m2
20:59 12.3 °C 8.3 °C 1019.9 hPa Calm     76.6% 0 mm 0 W/m2
21:04 12.3 °C 8.4 °C 1019.9 hPa Calm     77% 0 mm 0 W/m2
21:09 12.3 °C 8.4 °C 1019.9 hPa Calm     77% 0 mm 0 W/m2
21:30 12.4 °C 8.5 °C 1020.2 hPa Calm     77% 0 mm 0 W/m2
22:00 12.3 °C 8.6 °C 1020.2 hPa Calm     78% 0 mm 0 W/m2
22:30 12.2 °C 9.4 °C 1020.5 hPa Calm     83% 0 mm 0 W/m2
23:24 11.8 °C 9.5 °C 1020.9 hPa Calm     86% 0.51 mm 0 W/m2
23:29 11.7 °C 9.6 °C 1020.9 hPa Calm     86.7% 0.51 mm 0 W/m2
23:34 11.6 °C 9.6 °C 1020.9 hPa Calm     87% 0.51 mm 0 W/m2
23:39 11.6 °C 9.6 °C 1020.5 hPa Calm     88% 0.51 mm 0 W/m2
23:44 11.5 °C 9.6 °C 1020.5 hPa Calm     88% 0.76 mm 0 W/m2
23:49 11.4 °C 9.6 °C 1020.5 hPa Calm     88.4% 0.76 mm 0 W/m2
23:54 11.3 °C 9.6 °C 1020.5 hPa Calm     89% 0.76 mm 0 W/m2
23:59 11.3 °C 9.7 °C 1020.5 hPa Calm     89.6% 0.76 mm 0 W/m2
Hartford County Weather
Compliments of Weather Underground - 4 mb